createdAt,value
2019-03-17T00:01:19.557Z,54.00
2019-03-17T00:03:48.703Z,52.60
2019-03-17T00:06:17.880Z,53.20
2019-03-17T00:08:47.034Z,53.80
2019-03-17T00:11:16.185Z,54.20
2019-03-17T00:13:45.358Z,56.10
2019-03-17T00:16:14.501Z,55.20
2019-03-17T00:18:43.634Z,56.00
2019-03-17T00:21:12.868Z,56.60
2019-03-17T00:23:42.000Z,56.40
2019-03-17T00:26:11.225Z,57.20
2019-03-17T00:28:40.364Z,56.20
2019-03-17T00:31:09.525Z,57.30
2019-03-17T00:33:38.668Z,58.30
2019-03-17T00:36:07.823Z,59.10
2019-03-17T00:38:37.027Z,59.50
2019-03-17T00:41:06.284Z,59.50
2019-03-17T00:43:35.453Z,59.70
2019-03-17T00:46:04.605Z,59.10
2019-03-17T00:48:33.748Z,58.80
2019-03-17T00:51:02.895Z,59.40
2019-03-17T00:53:32.113Z,58.50
2019-03-17T00:56:01.239Z,57.50
2019-03-17T00:58:30.758Z,56.70
2019-03-17T01:00:59.892Z,56.90
2019-03-17T01:03:29.083Z,57.80
2019-03-17T01:05:58.202Z,57.60
2019-03-17T01:08:27.352Z,55.50
2019-03-17T01:10:56.478Z,55.80
2019-03-17T01:13:25.630Z,54.90
2019-03-17T01:15:54.760Z,56.30
2019-03-17T01:18:23.942Z,55.20
2019-03-17T01:20:53.072Z,56.10
2019-03-17T01:23:22.356Z,55.10
2019-03-17T01:25:51.702Z,54.90
2019-03-17T01:28:21.026Z,56.50
2019-03-17T01:30:50.394Z,55.50
2019-03-17T01:33:19.717Z,53.90
2019-03-17T01:35:48.905Z,52.80
2019-03-17T01:38:18.063Z,53.10
2019-03-17T01:40:47.282Z,54.20
2019-03-17T01:43:16.417Z,54.90
2019-03-17T01:45:45.668Z,55.70
2019-03-17T01:48:14.822Z,55.20
2019-03-17T01:50:43.990Z,56.00
2019-03-17T01:53:13.131Z,56.00
2019-03-17T01:55:42.280Z,56.30
2019-03-17T01:58:11.400Z,55.90
2019-03-17T02:00:40.747Z,55.80
2019-03-17T02:03:09.893Z,55.00
2019-03-17T02:05:39.063Z,54.80
2019-03-17T02:08:08.584Z,55.20
2019-03-17T02:10:37.744Z,55.30
2019-03-17T02:13:06.876Z,55.50
2019-03-17T02:15:36.069Z,54.90
2019-03-17T02:18:05.226Z,55.50
2019-03-17T02:20:34.800Z,54.50
2019-03-17T02:23:03.944Z,55.70
2019-03-17T02:25:33.296Z,56.50
2019-03-17T02:28:02.602Z,56.10
2019-03-17T02:30:31.748Z,56.40
2019-03-17T02:33:00.892Z,55.20
2019-03-17T02:35:38.962Z,55.60
2019-03-17T02:38:00.990Z,55.00
2019-03-17T02:40:30.142Z,55.50
2019-03-17T02:42:59.309Z,56.30
2019-03-17T02:45:28.426Z,56.90
2019-03-17T02:47:57.677Z,58.70
2019-03-17T02:50:26.910Z,59.10
2019-03-17T02:52:56.062Z,58.50
2019-03-17T02:55:25.179Z,58.60
2019-03-17T02:57:54.333Z,57.30
2019-03-17T03:00:23.476Z,56.90
2019-03-17T03:02:52.628Z,57.30
2019-03-17T03:05:21.774Z,57.70
2019-03-17T03:07:50.928Z,57.70
2019-03-17T03:10:20.233Z,58.90
2019-03-17T03:12:49.420Z,59.80
2019-03-17T03:15:18.557Z,59.50
2019-03-17T03:17:47.717Z,59.80
2019-03-17T03:20:16.860Z,59.80
2019-03-17T03:22:46.024Z,59.70
2019-03-17T03:25:15.188Z,60.00
2019-03-17T03:27:45.468Z,59.70
2019-03-17T03:30:14.650Z,60.40
2019-03-17T03:32:43.889Z,59.70
2019-03-17T03:35:13.006Z,60.60
2019-03-17T03:37:42.160Z,60.50
2019-03-17T03:40:11.329Z,60.50
2019-03-17T03:42:40.432Z,60.20
2019-03-17T03:45:09.990Z,61.40
2019-03-17T03:47:39.120Z,61.20
2019-03-17T03:50:08.291Z,61.80
2019-03-17T03:52:37.534Z,62.80
2019-03-17T03:55:06.713Z,62.70
2019-03-17T03:57:35.843Z,63.40
2019-03-17T04:00:06.641Z,64.20
2019-03-17T04:02:35.783Z,62.60
2019-03-17T04:05:05.584Z,62.40
2019-03-17T04:07:34.731Z,62.00
2019-03-17T04:10:04.069Z,63.70
2019-03-17T04:12:33.304Z,63.60
2019-03-17T04:15:02.510Z,63.10
2019-03-17T04:17:31.652Z,62.70
2019-03-17T04:20:00.823Z,61.80
2019-03-17T04:22:29.979Z,62.70
2019-03-17T04:24:59.142Z,63.10
2019-03-17T04:27:28.326Z,62.00
2019-03-17T04:29:57.782Z,63.00
2019-03-17T04:32:27.307Z,63.30
2019-03-17T04:34:56.479Z,62.30
2019-03-17T04:37:25.637Z,61.50
2019-03-17T04:39:54.783Z,62.30
2019-03-17T04:42:23.933Z,62.30
2019-03-17T04:44:53.064Z,61.50
2019-03-17T04:47:22.213Z,62.10
2019-03-17T04:49:51.423Z,62.60
2019-03-17T04:52:39.636Z,62.70
2019-03-17T04:55:08.865Z,63.00
2019-03-17T04:57:38.088Z,63.70
2019-03-17T05:00:07.893Z,62.90
2019-03-17T05:02:37.043Z,63.70
2019-03-17T05:05:07.161Z,63.70
2019-03-17T05:07:36.281Z,64.50
2019-03-17T05:10:05.843Z,63.80
2019-03-17T05:12:34.980Z,62.80
2019-03-17T05:15:04.116Z,62.50
2019-03-17T05:17:33.256Z,62.80
2019-03-17T05:20:02.470Z,64.20
2019-03-17T05:22:31.616Z,64.20
2019-03-17T05:25:00.740Z,65.20
2019-03-17T05:27:29.938Z,64.90
2019-03-17T05:29:59.057Z,65.60
2019-03-17T05:32:28.204Z,65.90
2019-03-17T05:34:57.356Z,66.00
2019-03-17T05:37:26.480Z,66.10
2019-03-17T05:39:55.783Z,66.30
2019-03-17T05:42:24.915Z,66.10
2019-03-17T05:44:54.081Z,66.40
2019-03-17T05:47:23.220Z,65.70
2019-03-17T05:49:52.367Z,66.20
2019-03-17T05:52:21.500Z,66.20
2019-03-17T05:54:50.658Z,64.40
2019-03-17T05:57:19.788Z,65.20
2019-03-17T05:59:48.933Z,64.20
2019-03-17T06:02:18.136Z,64.30
2019-03-17T06:04:47.350Z,65.30
2019-03-17T06:07:18.980Z,64.70
2019-03-17T06:09:47.362Z,65.20
2019-03-17T06:12:16.565Z,66.10
2019-03-17T06:14:45.744Z,66.30
2019-03-17T06:17:14.861Z,66.00
2019-03-17T06:19:43.999Z,64.90
2019-03-17T06:22:13.196Z,65.10
2019-03-17T06:24:42.414Z,65.70
2019-03-17T06:27:11.564Z,65.10
2019-03-17T06:29:40.720Z,64.10
2019-03-17T06:32:09.938Z,64.50
2019-03-17T06:34:39.060Z,64.20
2019-03-17T06:37:08.216Z,64.30
2019-03-17T06:39:37.340Z,65.10
2019-03-17T06:42:06.660Z,62.80
2019-03-17T06:44:35.791Z,62.60
2019-03-17T06:47:06.024Z,63.10
2019-03-17T06:49:35.320Z,63.70
2019-03-17T06:52:04.535Z,63.90
2019-03-17T06:54:33.667Z,63.60
2019-03-17T06:57:02.828Z,62.20
2019-03-17T06:59:31.963Z,61.10
2019-03-17T07:02:01.110Z,60.90
2019-03-17T07:04:30.269Z,60.60
2019-03-17T07:06:59.404Z,60.00
2019-03-17T07:09:28.537Z,59.70
2019-03-17T07:11:57.726Z,60.30
2019-03-17T07:14:26.865Z,59.30
2019-03-17T07:16:56.207Z,59.60
2019-03-17T07:19:25.368Z,59.30
2019-03-17T07:21:54.561Z,61.10
2019-03-17T07:24:23.904Z,62.10
2019-03-17T07:26:53.202Z,61.90
2019-03-17T07:29:22.323Z,62.80
2019-03-17T07:31:51.450Z,63.70
2019-03-17T07:34:20.597Z,63.80
2019-03-17T07:36:49.856Z,61.20
2019-03-17T07:39:19.007Z,61.30
2019-03-17T07:41:48.247Z,60.00
2019-03-17T07:44:17.393Z,57.30
2019-03-17T07:46:46.624Z,55.30
2019-03-17T07:49:15.898Z,54.40
2019-03-17T07:52:04.138Z,52.90
2019-03-17T07:54:35.096Z,49.30
2019-03-17T07:57:04.296Z,46.60
2019-03-17T07:59:33.536Z,45.20
2019-03-17T08:02:04.885Z,41.70
2019-03-17T08:04:42.546Z,40.40
2019-03-17T08:07:05.338Z,36.00
2019-03-17T08:09:34.591Z,31.70
2019-03-17T08:12:03.745Z,28.50
2019-03-17T08:14:33.122Z,27.20
2019-03-17T08:17:02.292Z,25.60
2019-03-17T08:19:31.773Z,23.80
2019-03-17T08:22:01.335Z,22.30
2019-03-17T08:24:30.656Z,21.20
2019-03-17T08:26:59.824Z,19.60
2019-03-17T08:29:28.988Z,18.40
2019-03-17T08:31:58.209Z,17.70
2019-03-17T08:34:27.451Z,17.50
2019-03-17T08:36:56.710Z,18.50
2019-03-17T08:39:26.179Z,18.20
2019-03-17T08:41:55.416Z,19.50
2019-03-17T08:44:24.548Z,20.60
2019-03-17T08:46:53.706Z,21.50
2019-03-17T08:49:23.193Z,22.40
2019-03-17T08:51:52.461Z,21.20
2019-03-17T08:54:21.613Z,22.20
2019-03-17T08:56:50.900Z,22.00
2019-03-17T08:59:20.395Z,22.30
2019-03-17T09:01:49.674Z,23.00
2019-03-17T09:04:18.985Z,22.40
2019-03-17T09:06:48.160Z,22.40
2019-03-17T09:09:17.297Z,22.70
2019-03-17T09:11:46.527Z,23.10
2019-03-17T09:14:15.827Z,23.50
2019-03-17T09:16:44.996Z,22.40
2019-03-17T09:19:14.169Z,23.00
2019-03-17T09:21:43.365Z,22.70
2019-03-17T09:24:17.222Z,23.10
2019-03-17T09:26:43.470Z,22.90
2019-03-17T09:29:12.664Z,23.00
2019-03-17T09:31:41.864Z,22.60
2019-03-17T09:34:11.005Z,23.00
2019-03-17T09:36:40.245Z,22.70
2019-03-17T09:39:09.578Z,23.20
2019-03-17T09:41:38.726Z,23.00
2019-03-17T09:44:07.894Z,22.80
2019-03-17T09:46:37.045Z,22.70
2019-03-17T09:49:06.266Z,23.00
2019-03-17T09:51:35.488Z,23.00
2019-03-17T09:54:04.672Z,23.10
2019-03-17T09:56:34.053Z,22.40
2019-03-17T09:59:03.220Z,23.40
2019-03-17T10:01:32.370Z,23.60
2019-03-17T10:04:01.625Z,23.40
2019-03-17T10:06:30.881Z,23.70
2019-03-17T10:09:00.584Z,23.30
2019-03-17T10:11:29.974Z,22.80
2019-03-17T10:14:00.229Z,22.30
2019-03-17T10:16:29.389Z,22.10
2019-03-17T10:18:58.642Z,22.20
2019-03-17T10:21:27.796Z,23.00
2019-03-17T10:23:56.985Z,23.70
2019-03-17T10:26:26.236Z,24.80
2019-03-17T10:28:55.452Z,24.80
2019-03-17T10:31:24.625Z,24.90
2019-03-17T10:33:53.897Z,25.10
2019-03-17T10:36:23.055Z,25.50
2019-03-17T10:38:52.256Z,25.60
2019-03-17T10:41:21.405Z,25.80
2019-03-17T10:43:50.566Z,25.60
2019-03-17T10:46:19.805Z,26.30
2019-03-17T10:48:49.000Z,26.10
2019-03-17T10:51:18.181Z,25.40
2019-03-17T10:53:47.338Z,25.00
2019-03-17T10:56:16.546Z,25.70
2019-03-17T10:58:45.671Z,25.30
2019-03-17T11:01:14.967Z,24.80
2019-03-17T11:03:44.098Z,23.70
2019-03-17T11:06:13.279Z,24.10
2019-03-17T11:08:42.451Z,23.80
2019-03-17T11:11:12.268Z,24.00
2019-03-17T11:13:41.716Z,22.90
2019-03-17T11:16:11.006Z,23.10
2019-03-17T11:18:40.217Z,22.30
2019-03-17T11:21:09.485Z,22.70
2019-03-17T11:23:38.715Z,22.00
2019-03-17T11:26:07.904Z,23.00
2019-03-17T11:28:37.114Z,23.40
2019-03-17T11:31:06.307Z,23.00
2019-03-17T11:33:35.440Z,24.20
2019-03-17T11:36:04.683Z,25.00
2019-03-17T11:38:34.228Z,26.10
2019-03-17T11:41:03.381Z,25.90
2019-03-17T11:43:32.619Z,26.50
2019-03-17T11:46:02.087Z,27.10
2019-03-17T11:48:31.383Z,27.30
2019-03-17T11:51:00.669Z,27.90
2019-03-17T11:53:29.850Z,28.00
2019-03-17T11:55:59.035Z,26.60
2019-03-17T11:58:28.396Z,26.30
2019-03-17T12:00:57.557Z,26.10
2019-03-17T12:03:26.850Z,24.40
2019-03-17T12:05:56.010Z,23.90
2019-03-17T12:08:25.155Z,23.90
2019-03-17T12:10:54.348Z,24.60
2019-03-17T12:13:23.606Z,22.10
2019-03-17T12:15:52.759Z,21.50
2019-03-17T12:18:21.905Z,20.20
2019-03-17T12:20:51.052Z,17.80
2019-03-17T12:23:20.234Z,16.70
2019-03-17T12:25:49.409Z,16.20
2019-03-17T12:28:18.586Z,15.40
2019-03-17T12:30:47.836Z,17.70
2019-03-17T12:33:17.100Z,18.90
2019-03-17T12:35:46.268Z,19.90
2019-03-17T12:38:15.522Z,22.80
2019-03-17T12:40:44.675Z,24.30
2019-03-17T12:43:13.941Z,25.80
2019-03-17T12:45:43.239Z,27.00
2019-03-17T12:48:12.522Z,28.30
2019-03-17T12:50:41.893Z,29.00
2019-03-17T12:53:11.130Z,29.20
2019-03-17T12:55:40.453Z,30.10
2019-03-17T12:58:09.848Z,30.60
2019-03-17T13:00:39.165Z,30.30
2019-03-17T13:03:08.429Z,31.00
2019-03-17T13:05:37.684Z,31.20
2019-03-17T13:08:06.853Z,31.20
2019-03-17T13:10:35.989Z,32.20
2019-03-17T13:13:05.170Z,33.40
2019-03-17T13:15:34.372Z,34.20
2019-03-17T13:18:03.532Z,36.50
2019-03-17T13:20:32.742Z,41.90
2019-03-17T13:23:01.927Z,43.80
2019-03-17T13:25:31.192Z,45.30
2019-03-17T13:28:00.465Z,46.10
2019-03-17T13:30:29.608Z,46.60
2019-03-17T13:32:58.998Z,47.10
2019-03-17T13:35:28.164Z,47.80
2019-03-17T13:37:57.432Z,47.90
2019-03-17T13:40:30.183Z,48.30
2019-03-17T13:42:57.973Z,48.90
2019-03-17T13:45:27.146Z,49.90
2019-03-17T13:47:56.465Z,50.60
2019-03-17T13:50:25.717Z,51.20
2019-03-17T13:52:54.876Z,53.20
2019-03-17T13:55:24.051Z,54.10
2019-03-17T13:57:54.732Z,56.80
2019-03-17T14:00:23.901Z,58.20
2019-03-17T14:02:53.049Z,58.60
2019-03-17T14:05:22.201Z,58.70
2019-03-17T14:07:51.355Z,60.20
2019-03-17T14:10:20.538Z,60.70
2019-03-17T14:12:49.776Z,61.90
2019-03-17T14:15:18.956Z,62.70
2019-03-17T14:17:48.168Z,64.80
2019-03-17T14:20:20.349Z,66.50
2019-03-17T14:22:48.873Z,67.00
2019-03-17T14:25:20.712Z,67.50
2019-03-17T14:27:50.048Z,66.90
2019-03-17T14:30:19.183Z,67.50
2019-03-17T14:32:48.411Z,68.30
2019-03-17T14:35:17.935Z,69.30
2019-03-17T14:37:47.281Z,69.20
2019-03-17T14:40:16.793Z,70.10
2019-03-17T14:42:48.444Z,70.70
2019-03-17T14:45:24.727Z,70.10
2019-03-17T14:47:53.877Z,69.60
2019-03-17T14:50:23.257Z,67.90
2019-03-17T14:53:03.185Z,68.40
2019-03-17T14:55:54.677Z,66.80
2019-03-17T14:58:24.026Z,67.00
2019-03-17T15:00:54.752Z,67.70
2019-03-17T15:03:23.897Z,67.10
2019-03-17T15:05:53.148Z,67.80
2019-03-17T15:08:22.341Z,67.30
2019-03-17T15:10:51.515Z,67.90
2019-03-17T15:13:20.857Z,67.20
2019-03-17T15:16:02.023Z,67.40
2019-03-17T15:18:21.116Z,67.50
2019-03-17T15:20:50.507Z,68.10
2019-03-17T15:23:19.716Z,68.80
2019-03-17T15:25:48.889Z,69.30
2019-03-17T15:28:18.071Z,68.60
2019-03-17T15:31:00.357Z,68.70
2019-03-17T15:33:18.309Z,68.30
2019-03-17T15:35:47.541Z,67.80
2019-03-17T15:38:16.764Z,69.30
2019-03-17T15:40:46.078Z,68.80
2019-03-17T15:43:15.376Z,68.60
2019-03-17T15:45:44.638Z,68.20
2019-03-17T15:48:13.856Z,67.40
2019-03-17T15:50:43.251Z,68.90
2019-03-17T15:53:12.511Z,67.50
2019-03-17T15:55:41.777Z,67.20
2019-03-17T15:58:11.036Z,67.60
2019-03-17T16:00:40.305Z,67.50
2019-03-17T16:03:09.872Z,68.60
2019-03-17T16:05:39.941Z,66.20
2019-03-17T16:08:09.128Z,67.00
2019-03-17T16:10:38.281Z,64.90
2019-03-17T16:13:07.516Z,65.00
2019-03-17T16:15:36.769Z,64.90
2019-03-17T16:18:06.053Z,65.30
2019-03-17T16:20:35.187Z,66.00
2019-03-17T16:23:04.375Z,67.00
2019-03-17T16:25:33.990Z,64.40
2019-03-17T16:28:03.476Z,65.40
2019-03-17T16:30:32.745Z,64.40
2019-03-17T16:33:01.921Z,65.10
2019-03-17T16:35:31.201Z,64.70
2019-03-17T16:38:00.731Z,65.00
2019-03-17T16:40:29.894Z,65.00
2019-03-17T16:42:59.176Z,66.30
2019-03-17T16:45:28.440Z,65.90
2019-03-17T16:47:57.635Z,64.70
2019-03-17T16:50:27.056Z,64.60
2019-03-17T16:52:56.239Z,65.00
2019-03-17T16:55:25.393Z,65.40
2019-03-17T16:57:54.643Z,66.10
2019-03-17T17:00:23.962Z,65.00
2019-03-17T17:02:53.122Z,64.20
2019-03-17T17:05:22.365Z,64.20
2019-03-17T17:07:51.742Z,65.20
2019-03-17T17:10:21.075Z,64.40
2019-03-17T17:12:50.213Z,65.10
2019-03-17T17:15:21.444Z,65.30
2019-03-17T17:17:50.586Z,64.70
2019-03-17T17:20:22.115Z,64.90
2019-03-17T17:22:51.342Z,65.30
2019-03-17T17:25:20.597Z,64.50
2019-03-17T17:27:49.804Z,65.10
2019-03-17T17:30:19.012Z,64.50
2019-03-17T17:32:48.231Z,64.60
2019-03-17T17:35:17.577Z,64.90
2019-03-17T17:37:46.742Z,65.20
2019-03-17T17:40:16.836Z,66.50
2019-03-17T17:42:46.060Z,65.80
2019-03-17T17:45:16.139Z,67.00
2019-03-17T17:47:45.497Z,67.10
2019-03-17T17:50:15.995Z,67.50
2019-03-17T17:52:45.591Z,68.80
2019-03-17T17:55:14.826Z,68.90
2019-03-17T17:57:44.178Z,70.40
2019-03-17T18:00:18.100Z,70.50
2019-03-17T18:02:47.470Z,70.80
2019-03-17T18:05:16.624Z,72.00
2019-03-17T18:07:46.160Z,72.10
2019-03-17T18:10:16.400Z,71.40
2019-03-17T18:12:45.590Z,71.20
2019-03-17T18:15:16.374Z,70.90
2019-03-17T18:17:45.740Z,71.40
2019-03-17T18:20:14.984Z,71.90
2019-03-17T18:22:44.315Z,71.80
2019-03-17T18:25:14.255Z,71.00
2019-03-17T18:27:43.953Z,71.10
2019-03-17T18:30:14.856Z,71.00
2019-03-17T18:32:44.080Z,71.50
2019-03-17T18:35:13.399Z,70.90
2019-03-17T18:37:42.779Z,71.30
2019-03-17T18:40:13.593Z,72.00
2019-03-17T18:42:42.935Z,71.90
2019-03-17T18:45:17.232Z,71.90
2019-03-17T18:47:46.568Z,71.10
2019-03-17T18:50:20.756Z,70.30
2019-03-17T18:52:46.836Z,70.40
2019-03-17T18:55:16.208Z,69.30
2019-03-17T18:57:45.538Z,68.90
2019-03-17T19:00:17.336Z,69.20
2019-03-17T19:02:46.515Z,68.70
2019-03-17T19:05:15.969Z,69.10
2019-03-17T19:07:45.117Z,67.90
2019-03-17T19:10:15.988Z,67.30
2019-03-17T19:12:46.322Z,67.10
2019-03-17T19:15:15.943Z,67.00
2019-03-17T19:17:45.103Z,66.00
2019-03-17T19:20:15.230Z,66.20
2019-03-17T19:22:44.603Z,65.70
2019-03-17T19:25:14.895Z,65.80
2019-03-17T19:27:44.214Z,65.80
2019-03-17T19:30:15.512Z,66.20
2019-03-17T19:32:44.802Z,65.30
2019-03-17T19:35:14.437Z,64.80
2019-03-17T19:37:43.762Z,65.30
2019-03-17T19:40:14.272Z,64.60
2019-03-17T19:42:43.740Z,64.90
2019-03-17T19:45:13.172Z,65.30
2019-03-17T19:47:42.392Z,64.50
2019-03-17T19:50:12.839Z,64.90
2019-03-17T19:52:42.093Z,65.40
2019-03-17T19:55:11.452Z,64.70
2019-03-17T19:57:40.641Z,64.80
2019-03-17T20:00:12.139Z,65.80
2019-03-17T20:02:41.433Z,65.90
2019-03-17T20:05:10.677Z,65.40
2019-03-17T20:07:39.932Z,65.60
2019-03-17T20:10:11.509Z,65.60
2019-03-17T20:12:40.784Z,65.00
2019-03-17T20:15:09.977Z,65.20
2019-03-17T20:17:39.254Z,65.00
2019-03-17T20:20:09.423Z,65.50
2019-03-17T20:22:38.805Z,64.90
2019-03-17T20:25:08.188Z,65.30
2019-03-17T20:27:37.593Z,64.70
2019-03-17T20:30:07.448Z,64.30
2019-03-17T20:32:36.714Z,64.80
2019-03-17T20:35:07.061Z,65.00
2019-03-17T20:37:36.361Z,64.20
2019-03-17T20:40:06.257Z,64.30
2019-03-17T20:42:35.442Z,62.90
2019-03-17T20:45:04.951Z,63.20
2019-03-17T20:47:34.171Z,63.40
2019-03-17T20:50:03.439Z,64.10
2019-03-17T20:52:32.612Z,63.80
2019-03-17T20:55:01.794Z,63.70
2019-03-17T20:57:30.948Z,63.90
2019-03-17T21:00:00.464Z,64.50
2019-03-17T21:02:29.700Z,64.50
2019-03-17T21:04:58.952Z,64.60
2019-03-17T21:07:28.166Z,65.80
2019-03-17T21:09:57.396Z,65.20
2019-03-17T21:12:26.696Z,64.30
2019-03-17T21:14:55.859Z,64.50
2019-03-17T21:17:25.015Z,64.30
2019-03-17T21:19:54.899Z,63.00
2019-03-17T21:22:24.048Z,63.60
2019-03-17T21:24:53.212Z,63.20
2019-03-17T21:27:22.685Z,63.40
2019-03-17T21:29:51.882Z,64.10
2019-03-17T21:32:21.187Z,64.50
2019-03-17T21:34:50.355Z,64.10
2019-03-17T21:37:19.496Z,63.30
2019-03-17T21:39:48.660Z,62.80
2019-03-17T21:42:17.854Z,63.60
2019-03-17T21:44:47.045Z,63.70
2019-03-17T21:47:16.240Z,63.50
2019-03-17T21:49:45.424Z,62.40
2019-03-17T21:52:14.591Z,61.70
2019-03-17T21:54:43.723Z,60.50
2019-03-17T21:57:12.903Z,60.20
2019-03-17T21:59:42.022Z,59.00
2019-03-17T22:02:13.234Z,59.20
2019-03-17T22:04:42.548Z,58.80
2019-03-17T22:07:11.818Z,58.90
2019-03-17T22:09:41.049Z,57.70
2019-03-17T22:12:10.213Z,57.40
2019-03-17T22:14:39.472Z,58.30
2019-03-17T22:17:08.644Z,58.00
2019-03-17T22:19:37.770Z,57.30
2019-03-17T22:22:09.012Z,57.60
2019-03-17T22:24:37.797Z,57.90
2019-03-17T22:27:07.048Z,58.30
2019-03-17T22:29:36.202Z,57.90
2019-03-17T22:32:05.373Z,58.40
2019-03-17T22:34:34.584Z,58.50
2019-03-17T22:37:03.745Z,58.80
2019-03-17T22:39:33.013Z,59.40
2019-03-17T22:42:02.194Z,59.90
2019-03-17T22:44:31.406Z,59.60
2019-03-17T22:47:00.833Z,60.60
2019-03-17T22:49:29.989Z,60.20
2019-03-17T22:51:59.339Z,59.90
2019-03-17T22:54:28.657Z,59.90
2019-03-17T22:56:57.975Z,59.40
2019-03-17T22:59:27.145Z,59.40
2019-03-17T23:01:56.360Z,59.90
2019-03-17T23:04:25.546Z,60.10
2019-03-17T23:06:54.729Z,59.40
2019-03-17T23:09:23.912Z,58.90
2019-03-17T23:11:53.332Z,59.00
2019-03-17T23:14:22.586Z,59.40
2019-03-17T23:16:51.843Z,59.40
2019-03-17T23:19:21.052Z,59.70
2019-03-17T23:21:50.180Z,59.30
2019-03-17T23:24:19.448Z,59.70
2019-03-17T23:26:48.581Z,60.20
2019-03-17T23:29:17.747Z,59.90
2019-03-17T23:31:46.885Z,60.00
2019-03-17T23:34:16.033Z,60.00
2019-03-17T23:36:45.175Z,59.30
2019-03-17T23:39:14.332Z,59.60
2019-03-17T23:41:44.171Z,59.90
2019-03-17T23:44:13.583Z,60.00
2019-03-17T23:46:42.848Z,60.20
2019-03-17T23:49:12.091Z,60.30
2019-03-17T23:51:41.216Z,60.00
2019-03-17T23:54:10.361Z,59.20
2019-03-17T23:56:39.593Z,59.20
2019-03-17T23:59:08.803Z,59.70
